sensor_id;sensor_type;location;lat;lon;timestamp;temperature;humidity
22067;DHT22;72821;49.814;19.034;2023-11-19T00:04:38;16.30;34.50
22067;DHT22;72821;49.814;19.034;2023-11-19T00:09:43;16.30;34.30
22067;DHT22;72821;49.814;19.034;2023-11-19T00:14:45;16.30;34.30
22067;DHT22;72821;49.814;19.034;2023-11-19T00:19:47;16.20;34.50
22067;DHT22;72821;49.814;19.034;2023-11-19T00:24:51;16.20;34.30
22067;DHT22;72821;49.814;19.034;2023-11-19T00:29:53;16.10;34.50
22067;DHT22;72821;49.814;19.034;2023-11-19T00:34:55;16.00;34.50
22067;DHT22;72821;49.814;19.034;2023-11-19T00:39:57;16.00;35.00
22067;DHT22;72821;49.814;19.034;2023-11-19T00:45:03;15.90;35.00
22067;DHT22;72821;49.814;19.034;2023-11-19T00:50:10;16.00;35.10
22067;DHT22;72821;49.814;19.034;2023-11-19T00:55:13;16.00;35.10
22067;DHT22;72821;49.814;19.034;2023-11-19T01:00:16;15.90;35.20
22067;DHT22;72821;49.814;19.034;2023-11-19T01:05:22;16.00;35.00
22067;DHT22;72821;49.814;19.034;2023-11-19T01:10:25;15.90;35.00
22067;DHT22;72821;49.814;19.034;2023-11-19T01:15:28;15.90;35.20
22067;DHT22;72821;49.814;19.034;2023-11-19T01:20:30;15.90;35.20
22067;DHT22;72821;49.814;19.034;2023-11-19T01:25:32;16.00;35.00
22067;DHT22;72821;49.814;19.034;2023-11-19T01:30:34;16.00;35.10
22067;DHT22;72821;49.814;19.034;2023-11-19T01:35:37;16.00;35.10
22067;DHT22;72821;49.814;19.034;2023-11-19T01:40:39;16.00;35.10
22067;DHT22;72821;49.814;19.034;2023-11-19T01:45:41;15.90;35.20
22067;DHT22;72821;49.814;19.034;2023-11-19T01:50:43;16.00;34.80
22067;DHT22;72821;49.814;19.034;2023-11-19T01:55:47;16.00;35.20
22067;DHT22;72821;49.814;19.034;2023-11-19T02:00:49;15.90;34.70
22067;DHT22;72821;49.814;19.034;2023-11-19T02:05:52;15.90;34.80
22067;DHT22;72821;49.814;19.034;2023-11-19T02:10:55;15.90;34.90
22067;DHT22;72821;49.814;19.034;2023-11-19T02:16:00;16.00;35.10
22067;DHT22;72821;49.814;19.034;2023-11-19T02:21:04;15.90;35.10
22067;DHT22;72821;49.814;19.034;2023-11-19T02:31:19;16.00;34.70
22067;DHT22;72821;49.814;19.034;2023-11-19T02:36:22;15.90;34.40
22067;DHT22;72821;49.814;19.034;2023-11-19T02:41:24;15.80;34.40
22067;DHT22;72821;49.814;19.034;2023-11-19T02:46:26;15.70;34.30
22067;DHT22;72821;49.814;19.034;2023-11-19T02:51:29;15.70;34.40
22067;DHT22;72821;49.814;19.034;2023-11-19T02:56:32;15.60;34.30
22067;DHT22;72821;49.814;19.034;2023-11-19T03:01:38;15.60;34.20
22067;DHT22;72821;49.814;19.034;2023-11-19T03:06:46;15.60;34.20
22067;DHT22;72821;49.814;19.034;2023-11-19T03:11:48;15.60;34.30
22067;DHT22;72821;49.814;19.034;2023-11-19T03:16:51;15.60;34.10
22067;DHT22;72821;49.814;19.034;2023-11-19T03:21:54;15.70;34.10
22067;DHT22;72821;49.814;19.034;2023-11-19T03:26:56;15.60;34.00
22067;DHT22;72821;49.814;19.034;2023-11-19T03:31:58;15.60;34.30
22067;DHT22;72821;49.814;19.034;2023-11-19T03:37:00;15.50;34.50
22067;DHT22;72821;49.814;19.034;2023-11-19T03:42:03;15.60;34.60
22067;DHT22;72821;49.814;19.034;2023-11-19T03:47:05;15.60;34.70
22067;DHT22;72821;49.814;19.034;2023-11-19T03:52:08;15.60;34.70
22067;DHT22;72821;49.814;19.034;2023-11-19T03:57:21;15.60;34.90
22067;DHT22;72821;49.814;19.034;2023-11-19T04:02:24;15.60;34.90
22067;DHT22;72821;49.814;19.034;2023-11-19T04:07:29;15.80;35.00
22067;DHT22;72821;49.814;19.034;2023-11-19T04:12:32;15.80;34.90
22067;DHT22;72821;49.814;19.034;2023-11-19T04:17:34;15.80;34.80
22067;DHT22;72821;49.814;19.034;2023-11-19T04:22:36;15.90;34.40
22067;DHT22;72821;49.814;19.034;2023-11-19T04:27:38;15.90;34.20
22067;DHT22;72821;49.814;19.034;2023-11-19T04:32:41;16.00;33.90
22067;DHT22;72821;49.814;19.034;2023-11-19T04:37:43;16.00;33.90
22067;DHT22;72821;49.814;19.034;2023-11-19T04:42:46;15.90;33.80
22067;DHT22;72821;49.814;19.034;2023-11-19T04:47:48;15.90;33.60
22067;DHT22;72821;49.814;19.034;2023-11-19T04:52:50;15.90;33.70
22067;DHT22;72821;49.814;19.034;2023-11-19T04:57:54;15.90;33.70
22067;DHT22;72821;49.814;19.034;2023-11-19T05:02:56;15.90;33.70
22067;DHT22;72821;49.814;19.034;2023-11-19T05:07:59;15.90;34.70
22067;DHT22;72821;49.814;19.034;2023-11-19T05:13:01;15.90;33.90
22067;DHT22;72821;49.814;19.034;2023-11-19T05:18:03;15.90;33.80
22067;DHT22;72821;49.814;19.034;2023-11-19T05:23:06;16.00;33.80
22067;DHT22;72821;49.814;19.034;2023-11-19T05:28:22;15.90;34.10
22067;DHT22;72821;49.814;19.034;2023-11-19T05:33:26;15.90;34.30
22067;DHT22;72821;49.814;19.034;2023-11-19T05:38:29;15.80;34.30
22067;DHT22;72821;49.814;19.034;2023-11-19T05:43:32;16.00;34.10
22067;DHT22;72821;49.814;19.034;2023-11-19T05:48:34;16.00;34.10
22067;DHT22;72821;49.814;19.034;2023-11-19T05:53:36;16.20;33.90
22067;DHT22;72821;49.814;19.034;2023-11-19T05:58:38;15.90;34.00
22067;DHT22;72821;49.814;19.034;2023-11-19T06:03:42;15.90;34.20
22067;DHT22;72821;49.814;19.034;2023-11-19T06:08:45;15.90;34.00
22067;DHT22;72821;49.814;19.034;2023-11-19T06:13:48;15.90;34.00
22067;DHT22;72821;49.814;19.034;2023-11-19T06:18:53;15.90;33.90
22067;DHT22;72821;49.814;19.034;2023-11-19T06:23:55;16.00;34.00
22067;DHT22;72821;49.814;19.034;2023-11-19T06:28:58;16.00;33.90
22067;DHT22;72821;49.814;19.034;2023-11-19T06:34:00;16.00;33.90
22067;DHT22;72821;49.814;19.034;2023-11-19T06:39:02;16.10;33.80
22067;DHT22;72821;49.814;19.034;2023-11-19T06:44:04;16.20;33.80
22067;DHT22;72821;49.814;19.034;2023-11-19T06:49:07;16.50;33.40
22067;DHT22;72821;49.814;19.034;2023-11-19T06:54:10;16.60;33.20
22067;DHT22;72821;49.814;19.034;2023-11-19T06:59:12;16.70;33.10
22067;DHT22;72821;49.814;19.034;2023-11-19T07:04:14;17.00;32.80
22067;DHT22;72821;49.814;19.034;2023-11-19T07:09:16;17.10;32.50
22067;DHT22;72821;49.814;19.034;2023-11-19T07:14:18;17.30;32.10
22067;DHT22;72821;49.814;19.034;2023-11-19T07:19:23;17.60;32.50
22067;DHT22;72821;49.814;19.034;2023-11-19T07:24:25;17.80;31.60
22067;DHT22;72821;49.814;19.034;2023-11-19T07:29:30;18.00;31.10
22067;DHT22;72821;49.814;19.034;2023-11-19T07:34:34;18.10;29.60
22067;DHT22;72821;49.814;19.034;2023-11-19T07:39:36;18.10;29.80
22067;DHT22;72821;49.814;19.034;2023-11-19T07:44:39;18.20;29.90
22067;DHT22;72821;49.814;19.034;2023-11-19T07:49:42;18.30;29.90
22067;DHT22;72821;49.814;19.034;2023-11-19T07:54:46;18.30;29.80
22067;DHT22;72821;49.814;19.034;2023-11-19T07:59:48;18.40;29.80
22067;DHT22;72821;49.814;19.034;2023-11-19T08:04:51;18.40;30.60
22067;DHT22;72821;49.814;19.034;2023-11-19T08:09:54;18.50;30.40
22067;DHT22;72821;49.814;19.034;2023-11-19T08:14:56;18.50;30.00
22067;DHT22;72821;49.814;19.034;2023-11-19T08:20:00;18.70;29.70
22067;DHT22;72821;49.814;19.034;2023-11-19T08:25:03;18.90;29.20
22067;DHT22;72821;49.814;19.034;2023-11-19T08:30:07;18.90;29.30
22067;DHT22;72821;49.814;19.034;2023-11-19T08:35:10;18.90;29.10
22067;DHT22;72821;49.814;19.034;2023-11-19T08:40:12;19.10;28.90
22067;DHT22;72821;49.814;19.034;2023-11-19T08:45:17;19.00;28.70
22067;DHT22;72821;49.814;19.034;2023-11-19T08:50:19;19.00;28.90
22067;DHT22;72821;49.814;19.034;2023-11-19T08:55:21;19.10;28.60
22067;DHT22;72821;49.814;19.034;2023-11-19T09:00:23;19.00;28.60
22067;DHT22;72821;49.814;19.034;2023-11-19T09:05:26;18.90;28.90
22067;DHT22;72821;49.814;19.034;2023-11-19T09:10:28;19.00;28.80
22067;DHT22;72821;49.814;19.034;2023-11-19T09:15:31;19.00;28.80
22067;DHT22;72821;49.814;19.034;2023-11-19T09:20:33;19.20;28.50
22067;DHT22;72821;49.814;19.034;2023-11-19T09:25:40;19.30;28.10
22067;DHT22;72821;49.814;19.034;2023-11-19T09:30:45;19.30;28.20
22067;DHT22;72821;49.814;19.034;2023-11-19T09:35:48;19.30;28.30
22067;DHT22;72821;49.814;19.034;2023-11-19T09:40:52;19.50;28.20
22067;DHT22;72821;49.814;19.034;2023-11-19T09:45:55;19.30;28.70
22067;DHT22;72821;49.814;19.034;2023-11-19T09:50:58;19.40;28.60
22067;DHT22;72821;49.814;19.034;2023-11-19T09:56:02;19.60;28.40
22067;DHT22;72821;49.814;19.034;2023-11-19T10:01:07;19.60;28.20
22067;DHT22;72821;49.814;19.034;2023-11-19T10:06:15;19.60;29.00
22067;DHT22;72821;49.814;19.034;2023-11-19T10:11:18;19.80;28.40
22067;DHT22;72821;49.814;19.034;2023-11-19T10:16:20;20.00;28.40
22067;DHT22;72821;49.814;19.034;2023-11-19T10:21:22;20.10;28.50
22067;DHT22;72821;49.814;19.034;2023-11-19T10:26:26;20.30;28.30
22067;DHT22;72821;49.814;19.034;2023-11-19T10:31:29;20.20;28.30
22067;DHT22;72821;49.814;19.034;2023-11-19T10:36:38;20.20;28.50
22067;DHT22;72821;49.814;19.034;2023-11-19T10:41:43;20.20;28.80
22067;DHT22;72821;49.814;19.034;2023-11-19T10:46:45;19.90;29.20
22067;DHT22;72821;49.814;19.034;2023-11-19T10:51:47;19.70;29.30
22067;DHT22;72821;49.814;19.034;2023-11-19T10:56:54;19.60;29.90
22067;DHT22;72821;49.814;19.034;2023-11-19T11:01:57;19.80;30.00
22067;DHT22;72821;49.814;19.034;2023-11-19T11:07:00;20.00;29.90
22067;DHT22;72821;49.814;19.034;2023-11-19T11:12:06;19.90;30.70
22067;DHT22;72821;49.814;19.034;2023-11-19T11:17:09;20.10;32.20
22067;DHT22;72821;49.814;19.034;2023-11-19T11:22:14;20.20;32.20
22067;DHT22;72821;49.814;19.034;2023-11-19T11:27:55;20.30;31.70
22067;DHT22;72821;49.814;19.034;2023-11-19T11:34:15;20.50;31.90
22067;DHT22;72821;49.814;19.034;2023-11-19T11:38:42;20.50;32.70
22067;DHT22;72821;49.814;19.034;2023-11-19T11:48:51;20.40;32.60
22067;DHT22;72821;49.814;19.034;2023-11-19T11:53:53;20.30;32.50
22067;DHT22;72821;49.814;19.034;2023-11-19T11:58:56;20.20;33.20
22067;DHT22;72821;49.814;19.034;2023-11-19T12:03:58;20.30;32.40
22067;DHT22;72821;49.814;19.034;2023-11-19T12:09:01;20.20;32.70
22067;DHT22;72821;49.814;19.034;2023-11-19T12:14:04;20.30;32.10
22067;DHT22;72821;49.814;19.034;2023-11-19T12:19:08;20.30;31.80
22067;DHT22;72821;49.814;19.034;2023-11-19T12:24:11;20.40;31.60
22067;DHT22;72821;49.814;19.034;2023-11-19T12:29:13;20.50;32.10
22067;DHT22;72821;49.814;19.034;2023-11-19T12:34:15;20.50;32.70
22067;DHT22;72821;49.814;19.034;2023-11-19T12:39:18;20.50;32.30
22067;DHT22;72821;49.814;19.034;2023-11-19T12:44:21;20.50;32.30
22067;DHT22;72821;49.814;19.034;2023-11-19T12:49:24;20.50;31.80
22067;DHT22;72821;49.814;19.034;2023-11-19T12:54:35;20.60;32.50
22067;DHT22;72821;49.814;19.034;2023-11-19T12:59:38;20.50;33.80
22067;DHT22;72821;49.814;19.034;2023-11-19T13:04:40;20.20;35.50
22067;DHT22;72821;49.814;19.034;2023-11-19T13:09:43;20.20;50.50
22067;DHT22;72821;49.814;19.034;2023-11-19T13:14:46;20.10;54.30
22067;DHT22;72821;49.814;19.034;2023-11-19T13:19:49;20.00;51.80
22067;DHT22;72821;49.814;19.034;2023-11-19T13:24:53;19.90;49.00
22067;DHT22;72821;49.814;19.034;2023-11-19T13:29:55;20.00;46.20
22067;DHT22;72821;49.814;19.034;2023-11-19T13:34:57;20.00;44.30
22067;DHT22;72821;49.814;19.034;2023-11-19T13:39:59;20.00;43.70
22067;DHT22;72821;49.814;19.034;2023-11-19T13:45:01;19.90;43.00
22067;DHT22;72821;49.814;19.034;2023-11-19T13:50:05;19.90;43.50
22067;DHT22;72821;49.814;19.034;2023-11-19T13:55:09;19.80;42.10
22067;DHT22;72821;49.814;19.034;2023-11-19T14:00:12;19.90;40.80
22067;DHT22;72821;49.814;19.034;2023-11-19T14:05:16;19.80;40.70
22067;DHT22;72821;49.814;19.034;2023-11-19T14:10:39;19.80;37.60
22067;DHT22;72821;49.814;19.034;2023-11-19T14:15:42;19.80;37.20
22067;DHT22;72821;49.814;19.034;2023-11-19T14:20:46;19.50;37.40
22067;DHT22;72821;49.814;19.034;2023-11-19T14:25:49;19.30;37.90
22067;DHT22;72821;49.814;19.034;2023-11-19T14:30:51;19.40;38.40
22067;DHT22;72821;49.814;19.034;2023-11-19T14:35:59;19.50;38.70
22067;DHT22;72821;49.814;19.034;2023-11-19T14:41:01;19.70;39.60
22067;DHT22;72821;49.814;19.034;2023-11-19T14:46:04;19.70;38.80
22067;DHT22;72821;49.814;19.034;2023-11-19T14:51:06;19.70;38.80
22067;DHT22;72821;49.814;19.034;2023-11-19T14:56:11;19.80;38.10
22067;DHT22;72821;49.814;19.034;2023-11-19T15:01:16;20.00;37.90
22067;DHT22;72821;49.814;19.034;2023-11-19T15:06:23;19.80;37.80
22067;DHT22;72821;49.814;19.034;2023-11-19T15:11:26;19.80;38.60
22067;DHT22;72821;49.814;19.034;2023-11-19T15:17:23;19.80;37.50
22067;DHT22;72821;49.814;19.034;2023-11-19T15:22:27;19.80;39.40
22067;DHT22;72821;49.814;19.034;2023-11-19T15:27:29;20.00;38.90
22067;DHT22;72821;49.814;19.034;2023-11-19T15:32:31;19.90;37.80
22067;DHT22;72821;49.814;19.034;2023-11-19T15:37:34;19.80;37.60
22067;DHT22;72821;49.814;19.034;2023-11-19T15:42:37;19.80;37.80
22067;DHT22;72821;49.814;19.034;2023-11-19T15:47:39;19.90;37.60
22067;DHT22;72821;49.814;19.034;2023-11-19T15:52:42;19.80;37.50
22067;DHT22;72821;49.814;19.034;2023-11-19T15:57:46;19.70;38.00
22067;DHT22;72821;49.814;19.034;2023-11-19T16:02:49;19.90;37.50
22067;DHT22;72821;49.814;19.034;2023-11-19T16:07:52;19.80;37.80
22067;DHT22;72821;49.814;19.034;2023-11-19T16:12:57;20.00;37.80
22067;DHT22;72821;49.814;19.034;2023-11-19T16:18:00;20.20;37.80
22067;DHT22;72821;49.814;19.034;2023-11-19T16:23:03;20.30;37.40
22067;DHT22;72821;49.814;19.034;2023-11-19T16:28:08;20.50;36.80
22067;DHT22;72821;49.814;19.034;2023-11-19T16:33:10;20.50;36.60
22067;DHT22;72821;49.814;19.034;2023-11-19T16:39:00;20.30;36.90
22067;DHT22;72821;49.814;19.034;2023-11-19T16:44:07;20.40;37.00
22067;DHT22;72821;49.814;19.034;2023-11-19T16:49:11;20.30;36.60
22067;DHT22;72821;49.814;19.034;2023-11-19T16:54:13;20.00;37.50
22067;DHT22;72821;49.814;19.034;2023-11-19T16:59:16;19.80;38.00
22067;DHT22;72821;49.814;19.034;2023-11-19T17:04:19;20.10;38.10
22067;DHT22;72821;49.814;19.034;2023-11-19T17:09:23;20.20;38.10
22067;DHT22;72821;49.814;19.034;2023-11-19T17:14:26;20.30;38.40
22067;DHT22;72821;49.814;19.034;2023-11-19T17:19:32;20.30;38.50
22067;DHT22;72821;49.814;19.034;2023-11-19T17:24:34;20.60;38.30
22067;DHT22;72821;49.814;19.034;2023-11-19T17:29:37;20.50;38.50
22067;DHT22;72821;49.814;19.034;2023-11-19T17:34:43;20.60;38.70
22067;DHT22;72821;49.814;19.034;2023-11-19T17:39:46;20.50;38.30
22067;DHT22;72821;49.814;19.034;2023-11-19T17:44:49;20.50;38.30
22067;DHT22;72821;49.814;19.034;2023-11-19T17:49:51;20.50;37.90
22067;DHT22;72821;49.814;19.034;2023-11-19T17:54:55;20.50;37.60
22067;DHT22;72821;49.814;19.034;2023-11-19T17:59:58;20.80;37.40
22067;DHT22;72821;49.814;19.034;2023-11-19T18:05:00;20.60;37.60
22067;DHT22;72821;49.814;19.034;2023-11-19T18:10:05;20.50;37.80
22067;DHT22;72821;49.814;19.034;2023-11-19T18:15:09;20.40;38.30
22067;DHT22;72821;49.814;19.034;2023-11-19T18:20:16;20.50;38.80
22067;DHT22;72821;49.814;19.034;2023-11-19T18:25:19;20.60;38.30
22067;DHT22;72821;49.814;19.034;2023-11-19T18:30:21;20.80;38.20
22067;DHT22;72821;49.814;19.034;2023-11-19T18:35:24;20.90;37.50
22067;DHT22;72821;49.814;19.034;2023-11-19T18:40:27;20.70;37.60
22067;DHT22;72821;49.814;19.034;2023-11-19T18:45:29;20.70;37.70
22067;DHT22;72821;49.814;19.034;2023-11-19T18:50:31;20.60;37.60
22067;DHT22;72821;49.814;19.034;2023-11-19T18:55:53;20.60;37.50
22067;DHT22;72821;49.814;19.034;2023-11-19T19:00:55;20.60;37.30
22067;DHT22;72821;49.814;19.034;2023-11-19T19:05:58;20.80;36.80
22067;DHT22;72821;49.814;19.034;2023-11-19T19:11:01;20.90;36.70
22067;DHT22;72821;49.814;19.034;2023-11-19T19:16:07;21.00;36.50
22067;DHT22;72821;49.814;19.034;2023-11-19T19:21:10;21.00;36.20
22067;DHT22;72821;49.814;19.034;2023-11-19T19:26:13;21.00;36.40
22067;DHT22;72821;49.814;19.034;2023-11-19T19:31:15;21.20;36.10
22067;DHT22;72821;49.814;19.034;2023-11-19T19:36:20;21.30;35.90
22067;DHT22;72821;49.814;19.034;2023-11-19T19:41:25;21.10;36.10
22067;DHT22;72821;49.814;19.034;2023-11-19T19:46:31;21.20;36.00
22067;DHT22;72821;49.814;19.034;2023-11-19T19:51:34;21.10;36.80
22067;DHT22;72821;49.814;19.034;2023-11-19T19:56:36;21.20;36.10
22067;DHT22;72821;49.814;19.034;2023-11-19T20:01:38;21.20;36.20
22067;DHT22;72821;49.814;19.034;2023-11-19T20:06:40;21.30;36.40
22067;DHT22;72821;49.814;19.034;2023-11-19T20:11:43;21.30;36.70
22067;DHT22;72821;49.814;19.034;2023-11-19T20:16:49;21.00;36.60
22067;DHT22;72821;49.814;19.034;2023-11-19T20:22:12;20.90;37.10
22067;DHT22;72821;49.814;19.034;2023-11-19T20:27:16;20.80;37.50
22067;DHT22;72821;49.814;19.034;2023-11-19T20:32:23;20.60;37.60
22067;DHT22;72821;49.814;19.034;2023-11-19T20:37:36;20.40;38.00
22067;DHT22;72821;49.814;19.034;2023-11-19T20:42:39;20.30;38.30
22067;DHT22;72821;49.814;19.034;2023-11-19T20:47:41;20.30;38.50
22067;DHT22;72821;49.814;19.034;2023-11-19T20:52:48;20.20;38.50
22067;DHT22;72821;49.814;19.034;2023-11-19T20:57:53;20.20;38.30
22067;DHT22;72821;49.814;19.034;2023-11-19T21:02:58;20.00;38.60
22067;DHT22;72821;49.814;19.034;2023-11-19T21:08:00;20.20;38.30
22067;DHT22;72821;49.814;19.034;2023-11-19T21:13:02;20.30;38.00
22067;DHT22;72821;49.814;19.034;2023-11-19T21:18:05;20.30;38.00
22067;DHT22;72821;49.814;19.034;2023-11-19T21:23:07;20.30;38.10
22067;DHT22;72821;49.814;19.034;2023-11-19T21:28:10;20.10;38.20
22067;DHT22;72821;49.814;19.034;2023-11-19T21:33:12;20.00;38.50
22067;DHT22;72821;49.814;19.034;2023-11-19T21:38:14;19.90;38.70
22067;DHT22;72821;49.814;19.034;2023-11-19T21:43:17;19.90;38.90
22067;DHT22;72821;49.814;19.034;2023-11-19T21:48:22;20.10;38.60
22067;DHT22;72821;49.814;19.034;2023-11-19T21:53:24;20.10;38.60
22067;DHT22;72821;49.814;19.034;2023-11-19T21:58:26;20.20;38.20
22067;DHT22;72821;49.814;19.034;2023-11-19T22:03:29;20.40;37.80
22067;DHT22;72821;49.814;19.034;2023-11-19T22:08:31;20.40;37.60
22067;DHT22;72821;49.814;19.034;2023-11-19T22:13:34;20.40;37.70
22067;DHT22;72821;49.814;19.034;2023-11-19T22:18:39;20.50;37.40
22067;DHT22;72821;49.814;19.034;2023-11-19T22:23:42;20.60;37.30
22067;DHT22;72821;49.814;19.034;2023-11-19T22:28:44;20.50;37.20
22067;DHT22;72821;49.814;19.034;2023-11-19T22:33:46;20.60;37.20
22067;DHT22;72821;49.814;19.034;2023-11-19T22:38:50;20.80;36.90
22067;DHT22;72821;49.814;19.034;2023-11-19T22:43:53;20.90;36.90
22067;DHT22;72821;49.814;19.034;2023-11-19T22:48:55;21.00;37.20
22067;DHT22;72821;49.814;19.034;2023-11-19T22:53:57;20.80;37.40
22067;DHT22;72821;49.814;19.034;2023-11-19T22:58:59;20.80;37.50
22067;DHT22;72821;49.814;19.034;2023-11-19T23:04:02;20.60;38.00
22067;DHT22;72821;49.814;19.034;2023-11-19T23:09:04;20.80;37.80
22067;DHT22;72821;49.814;19.034;2023-11-19T23:14:10;20.80;37.70
22067;DHT22;72821;49.814;19.034;2023-11-19T23:19:13;20.70;37.80
22067;DHT22;72821;49.814;19.034;2023-11-19T23:24:16;20.60;38.10
22067;DHT22;72821;49.814;19.034;2023-11-19T23:29:18;20.50;38.20
22067;DHT22;72821;49.814;19.034;2023-11-19T23:34:20;21.00;37.70
22067;DHT22;72821;49.814;19.034;2023-11-19T23:39:38;21.00;37.90
22067;DHT22;72821;49.814;19.034;2023-11-19T23:44:40;21.20;38.70
22067;DHT22;72821;49.814;19.034;2023-11-19T23:49:42;21.30;39.40
22067;DHT22;72821;49.814;19.034;2023-11-19T23:54:44;21.20;41.40
22067;DHT22;72821;49.814;19.034;2023-11-19T23:59:47;21.10;43.10
